Time;durP1;ratioP1;P1;durP2;ratioP2;P2;SDS_P1;SDS_P2;PMS_P1;PMS_P2;Temp;Humidity;BMP_temperature;BMP_pressure;BME280_temperature;BME280_humidity;BME280_pressure;Samples;Min_cycle;Max_cycle;Signal;HPM_P1;HPM_P2
2022/09/17 00:00:57;;;;;;;1.80;1.13;;;11.10;99.90;;;;;;5030513;28;20401;-72
2022/09/17 00:03:24;;;;;;;2.10;1.23;;;11.10;99.90;;;;;;5021341;28;20417;-73
2022/09/17 00:05:57;;;;;;;1.95;1.20;;;11.00;99.90;;;;;;5043565;28;20401;-73
2022/09/17 00:08:22;;;;;;;4.20;1.30;;;11.00;99.90;;;;;;5051319;28;20875;-73
2022/09/17 00:10:48;;;;;;;1.80;1.30;;;11.00;99.90;;;;;;5030545;28;20410;-72
2022/09/17 00:13:14;;;;;;;2.47;1.60;;;10.90;99.90;;;;;;5031708;28;20457;-73
2022/09/17 00:15:41;;;;;;;3.20;1.50;;;11.00;99.90;;;;;;5032025;28;20853;-72
2022/09/17 00:18:06;;;;;;;7.30;1.60;;;11.00;99.90;;;;;;5031843;28;20399;-72
2022/09/17 00:20:36;;;;;;;2.70;1.40;;;11.00;99.90;;;;;;5031891;28;20462;-72
2022/09/17 00:23:01;;;;;;;2.38;1.38;;;10.90;99.90;;;;;;5031008;28;20434;-72
2022/09/17 00:25:27;;;;;;;1.40;1.30;;;11.00;99.90;;;;;;5029900;28;20445;-73
2022/09/17 00:27:52;;;;;;;1.40;1.30;;;11.00;99.90;;;;;;5031855;28;20390;-73
2022/09/17 00:30:18;;;;;;;2.30;1.60;;;11.00;99.90;;;;;;5031476;28;20904;-72
2022/09/17 00:32:44;;;;;;;4.17;1.50;;;11.10;99.90;;;;;;5031353;28;20383;-73
2022/09/17 00:35:09;;;;;;;2.13;1.10;;;11.10;99.90;;;;;;5030979;28;20403;-71
2022/09/17 00:37:35;;;;;;;3.45;1.60;;;11.10;99.90;;;;;;5031543;28;20402;-71
2022/09/17 00:40:00;;;;;;;1.87;0.90;;;11.10;99.90;;;;;;5030585;28;20411;-71
2022/09/17 00:42:26;;;;;;;1.70;1.33;;;11.10;99.90;;;;;;5031110;28;20411;-72
2022/09/17 00:44:54;;;;;;;1.50;1.40;;;11.10;99.90;;;;;;5031476;28;20753;-72
2022/09/17 00:47:53;;;;;;;1.35;1.25;;;11.10;99.90;;;;;;5031392;28;20959;-72
2022/09/17 00:50:33;;;;;;;1.40;1.30;;;11.10;99.90;;;;;;4999692;28;20423;-72
2022/09/17 00:53:10;;;;;;;1.13;1.02;;;11.00;99.90;;;;;;5033241;28;20410;-71
2022/09/17 00:55:39;;;;;;;1.75;1.30;;;11.00;99.90;;;;;;5023948;28;20411;-72
2022/09/17 00:58:09;;;;;;;3.30;1.40;;;11.00;99.90;;;;;;5031239;28;20387;-72
2022/09/17 01:00:35;;;;;;;2.90;1.20;;;11.00;99.90;;;;;;5030412;28;20441;-72
2022/09/17 01:03:01;;;;;;;2.00;1.50;;;10.90;99.90;;;;;;5030423;28;20387;-71
2022/09/17 01:06:06;;;;;;;2.40;1.40;;;11.00;99.90;;;;;;5031165;28;20487;-72
2022/09/17 01:09:06;;;;;;;3.95;1.35;;;10.90;99.90;;;;;;4992423;28;20433;-71
2022/09/17 01:11:56;;;;;;;1.73;1.50;;;11.20;99.90;;;;;;4952028;28;20400;-71
2022/09/17 01:14:49;;;;;;;1.27;1.10;;;11.10;99.90;;;;;;5010975;28;20428;-71
2022/09/17 01:17:35;;;;;;;1.03;0.87;;;11.00;99.90;;;;;;4995736;28;21006;-71
2022/09/17 01:20:44;;;;;;;1.10;0.70;;;11.10;99.90;;;;;;5030880;28;20383;-71
2022/09/17 01:23:15;;;;;;;1.00;0.80;;;11.40;99.90;;;;;;5030419;28;20449;-71
2022/09/17 01:26:22;;;;;;;0.90;0.50;;;11.50;99.90;;;;;;5030132;28;20439;-71
2022/09/17 01:29:02;;;;;;;0.80;0.60;;;11.60;99.90;;;;;;5024461;28;20458;-71
2022/09/17 01:31:53;;;;;;;2.00;1.00;;;11.50;99.90;;;;;;5029598;28;20399;-71
2022/09/17 01:34:49;;;;;;;0.80;0.40;;;11.50;99.90;;;;;;5032177;28;20493;-71
2022/09/17 01:37:29;;;;;;;1.20;0.50;;;11.60;99.90;;;;;;5012570;28;20474;-70
2022/09/17 01:40:19;;;;;;;1.17;0.60;;;11.50;99.90;;;;;;5029512;28;20399;-71
2022/09/17 01:43:12;;;;;;;4.33;0.70;;;11.50;99.90;;;;;;5018997;28;20403;-71
2022/09/17 01:45:37;;;;;;;0.80;0.60;;;11.40;99.90;;;;;;5023147;28;20394;-71
2022/09/17 01:48:09;;;;;;;1.27;0.52;;;11.40;99.90;;;;;;5011587;28;20418;-71
2022/09/17 01:50:50;;;;;;;0.80;0.70;;;11.30;99.90;;;;;;5028073;28;20402;-71
2022/09/17 01:53:19;;;;;;;1.80;0.50;;;11.30;99.90;;;;;;5012510;28;20402;-70
2022/09/17 01:55:48;;;;;;;2.00;0.50;;;11.20;99.90;;;;;;5029968;28;20454;-71
2022/09/17 01:58:22;;;;;;;1.20;0.60;;;11.20;99.90;;;;;;5029335;28;20389;-71
2022/09/17 02:00:54;;;;;;;0.90;0.60;;;11.10;99.90;;;;;;5029963;28;20464;-71
2022/09/17 02:03:36;;;;;;;2.15;0.90;;;11.00;99.90;;;;;;5010872;28;20900;-71
2022/09/17 02:06:24;;;;;;;3.33;0.82;;;10.80;99.90;;;;;;5029999;28;20471;-71
2022/09/17 02:08:58;;;;;;;1.60;0.80;;;10.70;99.90;;;;;;5032513;28;20480;-71
2022/09/17 02:11:25;;;;;;;1.00;0.65;;;10.70;99.90;;;;;;5029491;28;20406;-71
2022/09/17 02:13:50;;;;;;;1.10;0.68;;;10.80;99.90;;;;;;5029579;28;20490;-71
2022/09/17 02:16:25;;;;;;;0.93;0.60;;;10.80;99.90;;;;;;5029950;28;20384;-71
2022/09/17 02:18:53;;;;;;;1.42;0.60;;;10.80;99.90;;;;;;5029161;28;20494;-71
2022/09/17 02:21:45;;;;;;;1.10;0.77;;;10.90;99.90;;;;;;5029572;28;20398;-71
2022/09/17 02:24:20;;;;;;;0.77;0.70;;;10.90;99.90;;;;;;5026742;28;20418;-71
2022/09/17 02:27:06;;;;;;;2.65;0.90;;;10.80;99.90;;;;;;5029613;28;20379;-71
2022/09/17 02:29:36;;;;;;;1.05;0.90;;;10.90;99.90;;;;;;5029110;28;20415;-71
2022/09/17 02:32:02;;;;;;;3.00;0.80;;;10.80;99.90;;;;;;5029388;28;20454;-71
2022/09/17 02:34:28;;;;;;;1.77;0.80;;;10.60;99.90;;;;;;5029409;28;20393;-71
2022/09/17 02:36:55;;;;;;;2.30;0.80;;;10.70;99.90;;;;;;5011935;28;20466;-71
2022/09/17 02:39:21;;;;;;;1.60;0.90;;;10.70;99.90;;;;;;5028232;28;20782;-71
2022/09/17 02:42:23;;;;;;;2.40;1.00;;;10.70;99.90;;;;;;5030451;28;20408;-71
2022/09/17 02:45:19;;;;;;;2.58;1.10;;;10.60;99.90;;;;;;5005897;28;20449;-71
2022/09/17 02:48:03;;;;;;;1.70;0.93;;;10.70;99.90;;;;;;5029453;28;20383;-71
2022/09/17 02:50:45;;;;;;;2.00;0.90;;;10.40;99.90;;;;;;5029345;28;20414;-71
2022/09/17 02:53:16;;;;;;;2.38;1.00;;;10.40;99.90;;;;;;5028117;28;20754;-71
2022/09/17 02:55:56;;;;;;;1.40;0.80;;;10.60;99.90;;;;;;5029277;28;20980;-71
2022/09/17 02:58:24;;;;;;;2.42;1.00;;;10.50;99.90;;;;;;5029378;28;20427;-71
2022/09/17 03:00:50;;;;;;;2.70;1.50;;;10.50;99.90;;;;;;5029092;28;20381;-71
2022/09/17 03:03:27;;;;;;;2.13;1.27;;;10.60;99.90;;;;;;5028932;28;20865;-71
2022/09/17 03:05:53;;;;;;;1.77;1.42;;;10.50;99.90;;;;;;5006509;28;20450;-71
2022/09/17 03:08:26;;;;;;;2.22;0.70;;;10.60;99.90;;;;;;5027764;28;20828;-71
2022/09/17 03:10:52;;;;;;;2.60;0.90;;;10.60;99.90;;;;;;5028418;28;20411;-71
2022/09/17 03:13:18;;;;;;;1.50;0.90;;;10.50;99.90;;;;;;5042278;28;20414;-71
2022/09/17 03:15:43;;;;;;;1.00;0.90;;;10.60;99.90;;;;;;5028939;28;20478;-71
2022/09/17 03:18:09;;;;;;;2.50;0.90;;;10.60;99.90;;;;;;5029352;28;20474;-71
2022/09/17 03:20:34;;;;;;;1.50;0.80;;;10.60;99.90;;;;;;5028876;28;20395;-72
2022/09/17 03:23:00;;;;;;;0.80;0.80;;;10.60;99.90;;;;;;5028683;28;20391;-71
2022/09/17 03:25:25;;;;;;;1.57;1.00;;;10.60;99.90;;;;;;5027415;28;20490;-72
2022/09/17 03:27:51;;;;;;;1.67;0.80;;;10.60;99.90;;;;;;5028728;28;20796;-72
2022/09/17 03:30:18;;;;;;;1.80;0.90;;;10.60;99.90;;;;;;5027120;28;20905;-72
2022/09/17 03:32:43;;;;;;;1.98;0.70;;;10.50;99.90;;;;;;5029936;28;20399;-72
2022/09/17 03:35:09;;;;;;;0.90;0.70;;;10.60;99.90;;;;;;5032879;28;20382;-72
2022/09/17 03:37:35;;;;;;;1.40;1.30;;;10.60;99.90;;;;;;5014557;28;20387;-72
2022/09/17 03:40:01;;;;;;;1.40;0.80;;;10.60;99.90;;;;;;5014424;28;20395;-71
2022/09/17 03:42:26;;;;;;;2.58;1.00;;;10.60;99.90;;;;;;5031610;28;20411;-72
2022/09/17 03:44:52;;;;;;;1.88;0.80;;;10.60;99.90;;;;;;5032941;28;20387;-72
2022/09/17 03:47:17;;;;;;;1.90;0.88;;;10.60;99.90;;;;;;5033959;28;20905;-72
2022/09/17 03:49:43;;;;;;;0.97;0.73;;;10.50;99.90;;;;;;5032406;28;20453;-72
2022/09/17 03:52:08;;;;;;;2.70;0.90;;;10.50;99.90;;;;;;5032990;28;20438;-72
2022/09/17 03:54:34;;;;;;;2.25;0.90;;;10.40;99.90;;;;;;5030786;28;20398;-71
2022/09/17 03:56:59;;;;;;;1.10;0.80;;;10.50;99.90;;;;;;5032346;28;20399;-71
2022/09/17 03:59:26;;;;;;;3.30;0.80;;;10.50;99.90;;;;;;5032609;28;20383;-72
2022/09/17 04:01:51;;;;;;;1.63;0.85;;;10.50;99.90;;;;;;5032750;28;21030;-72
2022/09/17 04:04:17;;;;;;;2.00;0.80;;;10.50;99.90;;;;;;5029155;28;20439;-72
2022/09/17 04:06:42;;;;;;;1.83;0.60;;;10.60;99.90;;;;;;5041919;28;20403;-71
2022/09/17 04:09:08;;;;;;;2.30;0.70;;;10.60;99.90;;;;;;5049198;28;20405;-71
2022/09/17 04:11:33;;;;;;;1.13;0.88;;;10.50;99.90;;;;;;5052252;28;20400;-72
2022/09/17 04:13:59;;;;;;;0.98;0.70;;;10.40;99.90;;;;;;5032296;28;20403;-72
2022/09/17 04:16:24;;;;;;;1.60;1.00;;;10.30;99.90;;;;;;5032253;28;20498;-71
2022/09/17 04:18:50;;;;;;;2.00;1.00;;;10.40;99.90;;;;;;5034095;28;20457;-71
2022/09/17 04:21:15;;;;;;;2.33;0.80;;;10.20;99.90;;;;;;5031816;28;20441;-72
2022/09/17 04:23:41;;;;;;;1.00;0.70;;;10.20;99.90;;;;;;5031448;28;20391;-71
2022/09/17 04:26:07;;;;;;;1.90;0.75;;;10.20;99.90;;;;;;5032141;28;20379;-71
2022/09/17 04:28:32;;;;;;;2.03;0.90;;;10.30;99.90;;;;;;5031384;28;20422;-71
2022/09/17 04:30:58;;;;;;;1.20;0.70;;;10.30;99.90;;;;;;5014352;28;20452;-71
2022/09/17 04:33:24;;;;;;;2.00;1.30;;;10.20;99.90;;;;;;5028710;28;20410;-72
2022/09/17 04:35:49;;;;;;;2.58;1.20;;;10.30;99.90;;;;;;5034574;28;20445;-71
2022/09/17 04:38:17;;;;;;;1.20;1.10;;;10.30;99.90;;;;;;5043839;28;20439;-71
2022/09/17 04:40:45;;;;;;;2.05;0.90;;;10.40;99.90;;;;;;5031690;28;20478;-71
2022/09/17 04:43:10;;;;;;;1.60;1.20;;;10.30;99.90;;;;;;5031599;28;20892;-71
2022/09/17 04:45:36;;;;;;;1.20;0.90;;;10.40;99.90;;;;;;5030498;28;20537;-71
2022/09/17 04:48:02;;;;;;;1.27;1.08;;;10.50;99.90;;;;;;5030543;28;20386;-71
2022/09/17 04:50:28;;;;;;;1.45;0.98;;;10.40;99.90;;;;;;5031365;28;20399;-71
2022/09/17 04:52:53;;;;;;;1.60;1.20;;;10.30;99.90;;;;;;5031568;28;20394;-72
2022/09/17 04:55:19;;;;;;;3.10;1.30;;;10.40;99.90;;;;;;5031553;28;20418;-72
2022/09/17 04:57:46;;;;;;;2.20;1.10;;;10.40;99.90;;;;;;5033536;28;20461;-72
2022/09/17 05:00:12;;;;;;;1.90;1.30;;;10.30;99.90;;;;;;5030632;28;20414;-73
2022/09/17 05:02:38;;;;;;;1.10;1.00;;;10.40;99.90;;;;;;5030738;28;20391;-73
2022/09/17 05:05:04;;;;;;;1.50;1.10;;;10.40;99.90;;;;;;5031432;28;20433;-71
2022/09/17 05:07:29;;;;;;;1.60;1.10;;;10.30;99.90;;;;;;5029904;28;20415;-71
2022/09/17 05:09:55;;;;;;;2.40;1.20;;;10.40;99.90;;;;;;5048153;22;20442;-70
2022/09/17 05:12:20;;;;;;;2.13;1.30;;;10.20;99.90;;;;;;5031005;28;20962;-71
2022/09/17 05:14:46;;;;;;;1.50;1.20;;;10.30;99.90;;;;;;5030301;28;20409;-69
2022/09/17 05:17:11;;;;;;;1.53;1.10;;;10.30;99.90;;;;;;5027361;28;20731;-69
2022/09/17 05:19:37;;;;;;;4.00;1.30;;;10.40;99.90;;;;;;5030814;28;20391;-69
2022/09/17 05:22:02;;;;;;;1.75;1.15;;;10.40;99.90;;;;;;5030394;28;20482;-72
2022/09/17 05:24:28;;;;;;;4.25;1.40;;;10.40;99.90;;;;;;5029990;28;20445;-70
2022/09/17 05:26:53;;;;;;;2.10;1.50;;;10.40;99.90;;;;;;5030017;28;20403;-71
2022/09/17 05:29:19;;;;;;;1.93;1.40;;;10.30;99.90;;;;;;5029357;28;20460;-73
2022/09/17 05:31:45;;;;;;;2.90;1.30;;;10.10;99.90;;;;;;5030724;28;20390;-69
2022/09/17 05:34:10;;;;;;;1.60;1.42;;;10.00;99.90;;;;;;5043823;28;20999;-69
2022/09/17 05:36:36;;;;;;;2.53;1.63;;;10.10;99.90;;;;;;5030803;28;20415;-71
2022/09/17 05:39:02;;;;;;;1.80;1.70;;;10.20;99.90;;;;;;5029021;28;20867;-71
2022/09/17 05:41:27;;;;;;;1.90;1.70;;;10.10;99.90;;;;;;5030260;28;20839;-71
2022/09/17 05:43:54;;;;;;;1.50;1.40;;;10.20;99.90;;;;;;5030499;28;20478;-70
2022/09/17 05:46:19;;;;;;;4.10;1.70;;;10.10;99.90;;;;;;5028827;28;20452;-70
2022/09/17 05:48:45;;;;;;;2.27;1.73;;;10.20;99.90;;;;;;5029611;28;20904;-70
2022/09/17 05:51:10;;;;;;;3.50;2.00;;;10.40;99.90;;;;;;5029462;28;20407;-68
2022/09/17 05:53:36;;;;;;;2.50;1.80;;;10.30;99.90;;;;;;5030365;28;20426;-69
2022/09/17 05:56:02;;;;;;;2.53;1.95;;;10.30;99.90;;;;;;5026762;28;20398;-69
2022/09/17 05:58:28;;;;;;;2.88;1.77;;;10.30;99.90;;;;;;5026720;28;20911;-69
2022/09/17 06:00:54;;;;;;;3.30;1.70;;;10.20;99.90;;;;;;5029175;28;20403;-69
2022/09/17 06:03:21;;;;;;;2.42;1.70;;;10.30;99.90;;;;;;5028620;28;20904;-69
2022/09/17 06:05:55;;;;;;;2.70;2.10;;;10.20;99.90;;;;;;5027810;28;20411;-70
2022/09/17 06:08:21;;;;;;;4.80;2.00;;;10.20;99.90;;;;;;5028620;28;20403;-68
2022/09/17 06:10:47;;;;;;;2.30;1.73;;;10.20;99.90;;;;;;5029154;28;20481;-68
2022/09/17 06:13:13;;;;;;;3.17;2.00;;;10.10;99.90;;;;;;5028647;28;20394;-69
2022/09/17 06:15:38;;;;;;;2.27;1.60;;;10.20;99.90;;;;;;5028605;28;20407;-70
2022/09/17 06:18:04;;;;;;;1.70;1.50;;;10.30;99.90;;;;;;5028425;28;20417;-69
2022/09/17 06:20:29;;;;;;;3.10;2.00;;;10.20;99.90;;;;;;5029443;28;20459;-69
2022/09/17 06:22:56;;;;;;;4.20;1.80;;;10.40;99.90;;;;;;5028873;28;20418;-69
2022/09/17 06:25:22;;;;;;;2.53;1.60;;;10.50;99.90;;;;;;5027978;28;20407;-69
2022/09/17 06:27:48;;;;;;;4.00;1.52;;;10.60;99.90;;;;;;5029897;28;20421;-69
2022/09/17 06:30:14;;;;;;;2.10;1.70;;;10.50;99.90;;;;;;5026767;28;20424;-69
2022/09/17 06:32:39;;;;;;;2.50;2.30;;;10.50;99.90;;;;;;5029318;28;20406;-69
2022/09/17 06:35:05;;;;;;;2.67;2.10;;;10.50;99.90;;;;;;5029715;28;20402;-70
2022/09/17 06:37:32;;;;;;;3.03;1.90;;;10.50;99.90;;;;;;5029951;28;20379;-70
2022/09/17 06:39:58;;;;;;;3.20;1.85;;;10.40;99.90;;;;;;5026286;28;20932;-69
2022/09/17 06:42:24;;;;;;;3.70;2.20;;;10.60;99.90;;;;;;5029008;28;20407;-68
2022/09/17 06:44:50;;;;;;;3.30;2.30;;;10.60;99.90;;;;;;5029893;28;20867;-69
2022/09/17 06:47:15;;;;;;;2.60;1.90;;;10.60;99.90;;;;;;5029709;28;20466;-70
2022/09/17 06:49:41;;;;;;;3.13;2.10;;;10.60;99.90;;;;;;5028474;28;20624;-70
2022/09/17 06:52:06;;;;;;;2.17;1.90;;;10.70;99.90;;;;;;5026161;28;20935;-70
2022/09/17 06:54:32;;;;;;;2.20;2.00;;;10.70;99.90;;;;;;5029345;28;20395;-69
2022/09/17 06:56:58;;;;;;;2.97;1.50;;;10.80;99.90;;;;;;5029906;28;20398;-70
2022/09/17 06:59:24;;;;;;;2.77;1.80;;;10.60;99.90;;;;;;5028486;28;20413;-70
2022/09/17 07:01:50;;;;;;;2.28;1.40;;;10.60;99.90;;;;;;5026403;28;20406;-70
2022/09/17 07:04:17;;;;;;;2.90;1.67;;;10.60;99.90;;;;;;5028358;28;20756;-70
2022/09/17 07:06:43;;;;;;;2.95;1.73;;;10.80;99.90;;;;;;5028667;28;20398;-70
2022/09/17 07:09:10;;;;;;;1.70;1.60;;;11.00;99.90;;;;;;5031857;28;20838;-70
2022/09/17 07:11:36;;;;;;;3.13;1.50;;;10.90;99.90;;;;;;5032136;28;20762;-70
2022/09/17 07:14:03;;;;;;;1.50;1.40;;;11.00;99.90;;;;;;5033223;28;20398;-70
2022/09/17 07:16:31;;;;;;;1.50;1.40;;;11.10;99.90;;;;;;5032133;28;20387;-70
2022/09/17 07:18:56;;;;;;;1.48;1.27;;;11.10;99.90;;;;;;5033504;28;20445;-70
2022/09/17 07:21:22;;;;;;;1.50;1.13;;;11.20;99.90;;;;;;5033229;28;20775;-70
2022/09/17 07:23:50;;;;;;;1.30;1.20;;;11.20;99.90;;;;;;5022246;28;20396;-69
2022/09/17 07:26:15;;;;;;;2.00;1.20;;;11.10;99.90;;;;;;5013631;28;20395;-69
2022/09/17 07:28:42;;;;;;;3.00;1.60;;;11.20;99.90;;;;;;5013391;28;20471;-69
2022/09/17 07:31:09;;;;;;;2.47;1.10;;;11.20;99.90;;;;;;5013607;28;20389;-69
2022/09/17 07:33:35;;;;;;;2.20;1.50;;;11.30;99.90;;;;;;5020068;28;20761;-70
2022/09/17 07:36:04;;;;;;;1.80;1.40;;;11.10;99.90;;;;;;5023671;28;20806;-70
2022/09/17 07:38:30;;;;;;;1.40;1.30;;;11.30;99.90;;;;;;5026178;28;20843;-68
2022/09/17 07:41:04;;;;;;;1.73;0.80;;;11.40;99.90;;;;;;5032909;28;20379;-70
2022/09/17 07:43:31;;;;;;;1.10;0.80;;;11.50;99.90;;;;;;5031890;28;20383;-69
2022/09/17 07:45:58;;;;;;;2.03;1.20;;;11.40;99.90;;;;;;5032955;28;20394;-70
2022/09/17 07:48:25;;;;;;;3.10;1.30;;;11.50;99.90;;;;;;5032405;28;20421;-70
2022/09/17 07:50:50;;;;;;;1.90;1.20;;;11.50;99.90;;;;;;5032425;28;20893;-70
2022/09/17 07:53:17;;;;;;;2.43;1.30;;;11.50;99.90;;;;;;5032688;28;20440;-71
2022/09/17 07:55:49;;;;;;;2.30;1.23;;;11.50;99.90;;;;;;5033251;28;20431;-71
2022/09/17 07:58:15;;;;;;;1.27;1.17;;;11.60;99.90;;;;;;5031020;28;20425;-70
2022/09/17 08:00:40;;;;;;;1.70;1.27;;;11.70;99.90;;;;;;5033153;28;20488;-70
2022/09/17 08:03:06;;;;;;;1.40;1.00;;;11.70;99.90;;;;;;5032411;28;20382;-70
2022/09/17 08:05:32;;;;;;;1.70;1.30;;;11.70;99.90;;;;;;5032442;28;20857;-68
2022/09/17 08:07:58;;;;;;;1.60;1.30;;;11.80;99.90;;;;;;5032686;28;20465;-70
2022/09/17 08:10:25;;;;;;;1.73;1.63;;;12.00;99.90;;;;;;5032104;28;20419;-70
2022/09/17 08:12:56;;;;;;;1.27;1.10;;;11.80;99.90;;;;;;5030662;28;20731;-70
2022/09/17 08:15:22;;;;;;;1.25;1.15;;;11.80;99.90;;;;;;5031876;28;20574;-69
2022/09/17 08:17:48;;;;;;;2.60;1.30;;;11.80;99.90;;;;;;5026926;28;20415;-70
2022/09/17 08:20:15;;;;;;;3.10;1.50;;;11.90;99.90;;;;;;5028856;28;20411;-70
2022/09/17 08:22:41;;;;;;;1.60;1.20;;;11.90;99.90;;;;;;5027826;28;20402;-68
2022/09/17 08:25:08;;;;;;;2.15;1.05;;;11.90;99.90;;;;;;5028293;28;20852;-69
2022/09/17 08:27:34;;;;;;;1.50;1.10;;;11.80;99.90;;;;;;5029361;28;20407;-70
2022/09/17 08:30:00;;;;;;;1.50;1.20;;;11.80;99.90;;;;;;5023014;28;20409;-70
2022/09/17 08:32:29;;;;;;;1.40;1.30;;;11.90;99.90;;;;;;5019126;28;20402;-70
2022/09/17 08:34:54;;;;;;;1.60;1.00;;;12.00;99.90;;;;;;5031819;28;20948;-70
2022/09/17 08:37:20;;;;;;;1.90;1.20;;;12.00;99.90;;;;;;5031731;28;20475;-70
2022/09/17 08:39:46;;;;;;;1.95;1.00;;;12.00;99.90;;;;;;5031678;28;20438;-70
2022/09/17 08:42:31;;;;;;;2.05;1.30;;;11.90;99.90;;;;;;5032127;28;20426;-71
2022/09/17 08:44:57;;;;;;;2.10;1.30;;;11.90;99.90;;;;;;5027565;28;20389;-69
2022/09/17 08:47:38;;;;;;;3.00;1.55;;;11.80;99.90;;;;;;5033084;28;20393;-70
2022/09/17 08:50:10;;;;;;;2.15;1.33;;;11.80;99.90;;;;;;5039850;28;20415;-70
2022/09/17 08:53:17;;;;;;;1.80;1.30;;;11.80;99.90;;;;;;5033932;28;20458;-69
2022/09/17 08:55:50;;;;;;;2.90;1.20;;;11.90;99.90;;;;;;5017312;28;20396;-69
2022/09/17 08:58:38;;;;;;;1.42;1.33;;;11.90;99.90;;;;;;5029019;28;20407;-68
2022/09/17 09:01:23;;;;;;;1.65;1.13;;;11.90;99.90;;;;;;5028307;28;20387;-70
2022/09/17 09:04:50;;;;;;;2.60;1.10;;;12.00;99.90;;;;;;5026244;28;20384;-69
2022/09/17 09:07:44;;;;;;;2.65;1.30;;;12.00;99.90;;;;;;4975986;28;20410;-70
2022/09/17 09:10:16;;;;;;;3.05;1.30;;;12.10;99.90;;;;;;4987135;28;21063;-70
2022/09/17 09:12:43;;;;;;;2.10;1.30;;;12.10;99.90;;;;;;5033837;28;20462;-70
2022/09/17 09:15:27;;;;;;;2.60;1.33;;;12.10;99.90;;;;;;5026105;28;20415;-69
2022/09/17 09:17:53;;;;;;;3.00;1.40;;;12.00;99.90;;;;;;5026416;28;20390;-70
2022/09/17 09:20:36;;;;;;;2.25;1.27;;;12.20;99.90;;;;;;5027793;28;20390;-70
2022/09/17 09:23:16;;;;;;;4.10;1.70;;;12.30;99.90;;;;;;5023161;28;20482;-71
2022/09/17 09:25:52;;;;;;;2.85;1.13;;;12.40;99.90;;;;;;5026409;28;20410;-71
2022/09/17 09:28:33;;;;;;;1.90;1.30;;;12.40;99.90;;;;;;5030095;28;20811;-71
2022/09/17 09:31:44;;;;;;;2.30;0.90;;;12.40;99.90;;;;;;5025274;28;20399;-71
2022/09/17 09:34:12;;;;;;;3.97;1.27;;;12.20;99.90;;;;;;5043863;28;21073;-71
2022/09/17 09:36:37;;;;;;;1.75;0.93;;;12.40;99.90;;;;;;5029281;28;20406;-70
2022/09/17 09:39:16;;;;;;;3.10;1.10;;;12.30;99.90;;;;;;5028815;28;20410;-70
2022/09/17 09:42:20;;;;;;;1.65;0.93;;;12.40;99.90;;;;;;5026069;28;20407;-69
2022/09/17 09:44:45;;;;;;;1.52;1.10;;;12.40;99.90;;;;;;4983201;28;20496;-72
2022/09/17 09:47:26;;;;;;;3.73;1.20;;;12.60;99.90;;;;;;5021137;28;20491;-69
2022/09/17 09:50:07;;;;;;;3.35;1.00;;;12.50;99.90;;;;;;5029809;28;20407;-70
2022/09/17 09:53:00;;;;;;;3.42;1.30;;;12.70;99.90;;;;;;5027474;28;20379;-69
2022/09/17 09:56:04;;;;;;;2.55;1.40;;;12.60;99.90;;;;;;5025857;28;20395;-70
2022/09/17 09:58:38;;;;;;;1.67;1.30;;;12.60;99.90;;;;;;5030802;28;20754;-70
2022/09/17 10:01:21;;;;;;;2.10;1.10;;;12.60;99.90;;;;;;5021985;28;20418;-70
2022/09/17 10:03:50;;;;;;;3.75;1.10;;;12.40;99.90;;;;;;5026495;28;20475;-69
2022/09/17 10:06:17;;;;;;;3.42;1.15;;;12.50;99.90;;;;;;5015700;28;20881;-69
2022/09/17 10:08:54;;;;;;;3.08;1.20;;;12.30;99.90;;;;;;5028081;28;20817;-70
2022/09/17 10:11:25;;;;;;;2.63;1.10;;;12.30;99.90;;;;;;5029130;28;20425;-69
2022/09/17 10:13:51;;;;;;;1.40;0.98;;;12.50;99.90;;;;;;5028811;28;20505;-70
2022/09/17 10:16:23;;;;;;;4.80;1.30;;;12.50;99.90;;;;;;5026064;28;20490;-70
2022/09/17 10:19:08;;;;;;;3.75;1.30;;;12.60;99.90;;;;;;5026173;28;20499;-71
2022/09/17 10:21:38;;;;;;;6.65;1.85;;;12.50;99.90;;;;;;5028444;28;22355;-71
2022/09/17 10:24:21;;;;;;;3.47;1.30;;;12.70;99.90;;;;;;5029950;28;20477;-71
2022/09/17 10:26:47;;;;;;;2.10;1.10;;;12.90;99.90;;;;;;5010897;28;20370;-70
2022/09/17 10:29:19;;;;;;;2.20;1.50;;;12.90;99.90;;;;;;5010737;28;20419;-71
2022/09/17 10:31:52;;;;;;;2.15;1.13;;;12.90;99.90;;;;;;5010834;28;20466;-71
2022/09/17 10:34:20;;;;;;;2.80;1.60;;;12.80;99.90;;;;;;5010484;28;20755;-71
2022/09/17 10:36:47;;;;;;;1.30;0.85;;;13.00;99.90;;;;;;5011087;28;20897;-71
2022/09/17 10:39:43;;;;;;;1.63;1.10;;;13.10;99.90;;;;;;5010930;28;20397;-71
2022/09/17 10:42:16;;;;;;;3.88;1.27;;;13.20;99.90;;;;;;5012772;28;20397;-71
2022/09/17 10:44:55;;;;;;;2.80;1.00;;;13.10;99.90;;;;;;5014323;28;20800;-71
2022/09/17 10:47:23;;;;;;;2.17;1.17;;;13.30;99.90;;;;;;5014767;28;20393;-71
2022/09/17 10:50:04;;;;;;;3.80;1.20;;;13.20;99.90;;;;;;5014458;28;20412;-71
2022/09/17 10:52:33;;;;;;;3.35;1.42;;;13.40;99.90;;;;;;5014382;28;20392;-72
2022/09/17 10:55:17;;;;;;;1.60;0.95;;;13.00;99.90;;;;;;5014587;28;20415;-70
2022/09/17 10:57:56;;;;;;;1.98;1.30;;;13.10;99.90;;;;;;5014448;28;20384;-71
2022/09/17 11:00:22;;;;;;;1.40;0.98;;;13.20;99.90;;;;;;5013042;28;20405;-71
2022/09/17 11:03:09;;;;;;;2.42;1.10;;;13.10;99.90;;;;;;5014048;28;20392;-71
2022/09/17 11:05:58;;;;;;;1.98;1.15;;;13.20;99.90;;;;;;5015968;28;20445;-71
2022/09/17 11:09:05;;;;;;;1.73;1.30;;;13.30;99.90;;;;;;5027377;28;20406;-71
2022/09/17 11:12:11;;;;;;;3.00;1.17;;;13.20;99.90;;;;;;5047945;22;20426;-71
2022/09/17 11:15:06;;;;;;;3.78;1.20;;;13.10;99.90;;;;;;5033415;28;20441;-72
2022/09/17 11:17:48;;;;;;;1.30;1.20;;;13.00;99.90;;;;;;5033622;28;20375;-71
2022/09/17 11:20:31;;;;;;;2.00;1.17;;;13.10;99.90;;;;;;5033462;28;20383;-72
2022/09/17 11:23:31;;;;;;;2.05;1.20;;;13.20;99.90;;;;;;5033373;28;20477;-71
2022/09/17 11:26:33;;;;;;;4.50;1.30;;;13.30;99.90;;;;;;5033581;28;20391;-71
2022/09/17 11:29:08;;;;;;;1.38;1.10;;;13.30;99.90;;;;;;5033416;28;20409;-72
2022/09/17 11:31:58;;;;;;;2.78;1.40;;;13.30;99.90;;;;;;5033432;28;20394;-72
2022/09/17 11:34:54;;;;;;;4.38;1.20;;;13.20;99.90;;;;;;5033147;28;21159;-72
2022/09/17 11:37:30;;;;;;;2.47;1.00;;;13.30;99.90;;;;;;5033408;28;20757;-71
2022/09/17 11:40:05;;;;;;;1.65;1.00;;;13.30;99.90;;;;;;5033231;28;21014;-71
2022/09/17 11:42:55;;;;;;;2.20;1.20;;;13.40;99.90;;;;;;5033124;28;20390;-71
2022/09/17 11:45:32;;;;;;;2.90;0.80;;;13.30;99.90;;;;;;5031135;28;20380;-72
2022/09/17 11:48:15;;;;;;;3.60;1.10;;;13.40;99.90;;;;;;5033186;28;20383;-72
2022/09/17 11:50:55;;;;;;;1.85;0.90;;;13.40;99.90;;;;;;5031064;28;21339;-72
2022/09/17 11:53:33;;;;;;;2.27;0.90;;;13.40;99.90;;;;;;5031057;28;20533;-72
2022/09/17 11:56:13;;;;;;;1.67;1.00;;;13.60;99.90;;;;;;5032678;28;20387;-73
2022/09/17 11:59:03;;;;;;;2.13;1.10;;;14.20;99.90;;;;;;5031835;28;20391;-72
2022/09/17 12:01:43;;;;;;;1.38;0.70;;;14.30;99.90;;;;;;5030282;28;20375;-73
2022/09/17 12:04:26;;;;;;;1.90;1.13;;;15.60;99.90;;;;;;5029973;28;20904;-73
2022/09/17 12:07:01;;;;;;;2.20;1.30;;;15.30;99.90;;;;;;5012908;28;20761;-73
2022/09/17 12:09:31;;;;;;;6.05;1.10;;;14.80;99.90;;;;;;5029839;28;20482;-73
2022/09/17 12:12:06;;;;;;;3.58;1.30;;;14.60;99.90;;;;;;5032168;28;20421;-72
2022/09/17 12:14:55;;;;;;;3.90;1.00;;;14.40;99.90;;;;;;5028954;28;20391;-72
2022/09/17 12:17:25;;;;;;;1.88;1.08;;;14.50;99.90;;;;;;5031529;28;20825;-72
2022/09/17 12:19:57;;;;;;;2.87;1.00;;;14.80;99.90;;;;;;5014184;28;20453;-73
2022/09/17 12:22:26;;;;;;;2.42;0.80;;;14.60;99.90;;;;;;5021096;28;20393;-72
2022/09/17 12:24:53;;;;;;;1.00;0.90;;;14.10;99.90;;;;;;5037374;28;20429;-72
2022/09/17 12:27:23;;;;;;;2.28;1.00;;;14.00;99.90;;;;;;5031528;28;20390;-73
2022/09/17 12:30:05;;;;;;;2.90;1.30;;;14.60;99.90;;;;;;5020352;28;20918;-73
2022/09/17 12:33:21;;;;;;;1.80;1.00;;;14.80;99.90;;;;;;5031297;28;21130;-73
2022/09/17 12:36:21;;;;;;;1.98;1.10;;;15.00;99.90;;;;;;4931877;29;20404;-74
2022/09/17 12:39:23;;;;;;;1.60;0.90;;;15.40;99.90;;;;;;4932780;29;20864;-73
2022/09/17 12:42:06;;;;;;;2.47;1.10;;;14.90;99.90;;;;;;5008031;28;20412;-73
2022/09/17 12:44:50;;;;;;;1.17;0.80;;;14.40;99.90;;;;;;5027227;28;20391;-74
2022/09/17 12:47:45;;;;;;;0.93;0.85;;;14.70;99.90;;;;;;5030998;28;20419;-75
2022/09/17 12:50:18;;;;;;;1.30;0.90;;;14.90;99.90;;;;;;5028785;28;20896;-74
2022/09/17 12:53:01;;;;;;;2.30;1.00;;;15.60;99.90;;;;;;5013883;28;20608;-74
2022/09/17 12:55:34;;;;;;;1.10;1.00;;;15.70;99.90;;;;;;5031867;28;20410;-73
2022/09/17 12:58:10;;;;;;;2.63;0.90;;;15.90;99.90;;;;;;5013985;28;20787;-73
2022/09/17 13:00:42;;;;;;;2.60;0.80;;;15.90;99.90;;;;;;5031849;28;20480;-74
2022/09/17 13:03:18;;;;;;;1.58;0.80;;;16.10;99.90;;;;;;5031490;28;20470;-73
2022/09/17 13:05:50;;;;;;;1.70;0.60;;;15.90;99.90;;;;;;5030710;28;20390;-73
2022/09/17 13:08:51;;;;;;;1.75;0.63;;;15.90;99.90;;;;;;5031711;28;20383;-73
2022/09/17 13:11:23;;;;;;;1.90;0.82;;;16.00;99.90;;;;;;5013500;28;20980;-74
2022/09/17 13:13:59;;;;;;;1.88;0.90;;;16.00;99.90;;;;;;5031109;28;20494;-74
2022/09/17 13:16:56;;;;;;;1.38;0.80;;;16.30;99.10;;;;;;5031454;28;20383;-74
2022/09/17 13:19:37;;;;;;;1.58;0.70;;;16.40;99.80;;;;;;5013721;28;20394;-74